Terminal Aerodrome Forecast
Issued by NWS Sterling, VA

Home | Current Version | Previous Version | Text Only | Print | Product List | Glossary On
Versions: 1 2 3 4 5 6 7 8 9 10 11 12 13 14 15 16 17 18 19 20 21 22 23 24 25 26 27
000
FTUS41 KLWX 301459 AAA
TAFBWI
TAF AMD
KBWI 301459Z 3015/0118 17007KT P6SM BKN070
     FM301600 18010KT P6SM VCTS BKN050CB
     FM302200 16009KT P6SM -TSRA BKN050CB
     FM010000 15007KT P6SM -SHRA VCTS BKN050CB
     FM010400 16004KT P6SM BKN070
     FM010800 22004KT P6SM BKN070
     FM011500 28006KT P6SM BKN250=

USA.gov is the U.S. government's official web portal to all federal, state and local government web resources and services.